Time;durP1;ratioP1;P1;durP2;ratioP2;P2;SDS_P1;SDS_P2;PMS_P1;PMS_P2;Temp;Humidity;BMP_temperature;BMP_pressure;BME280_temperature;BME280_humidity;BME280_pressure;Samples;Min_cycle;Max_cycle;Signal;HPM_P1;HPM_P2
2021/04/04 00:02:15;;;;;;;3.88;1.98;;;;;;;26.40;25.29;97182.75;5064949;28;20039;-25
2021/04/04 00:04:41;;;;;;;3.63;1.80;;;;;;;26.40;25.30;97179.25;5056675;28;20024;-21
2021/04/04 00:07:06;;;;;;;4.57;1.50;;;;;;;26.40;25.27;97171.38;5061023;28;20032;-24
2021/04/04 00:09:32;;;;;;;3.97;1.67;;;;;;;26.38;25.36;97168.81;5065633;28;20823;-25
2021/04/04 00:11:57;;;;;;;2.80;1.58;;;;;;;26.39;25.40;97172.31;5058127;28;20454;-27
2021/04/04 00:14:22;;;;;;;2.10;1.40;;;;;;;26.39;25.29;97180.19;5060781;28;20032;-26
2021/04/04 00:16:48;;;;;;;3.28;1.73;;;;;;;26.38;25.48;97175.88;5064348;28;20036;-27
2021/04/04 00:19:13;;;;;;;2.25;1.52;;;;;;;26.38;25.32;97178.50;5059784;28;20051;-29
2021/04/04 00:21:39;;;;;;;2.55;1.85;;;;;;;26.37;25.30;97179.41;5061984;28;20024;-25
2021/04/04 00:24:05;;;;;;;3.25;1.77;;;;;;;26.37;25.29;97168.88;5064535;28;20035;-27
2021/04/04 00:26:30;;;;;;;4.38;1.40;;;;;;;26.37;25.40;97174.16;5063212;28;20032;-25
2021/04/04 00:28:56;;;;;;;2.55;1.50;;;;;;;26.37;25.33;97168.88;5062428;28;20633;-26
2021/04/04 00:31:21;;;;;;;6.05;1.60;;;;;;;26.37;25.39;97171.50;5060776;28;20052;-28
2021/04/04 00:33:47;;;;;;;2.40;1.70;;;;;;;26.37;25.30;97176.78;5060817;28;20704;-27
2021/04/04 00:36:12;;;;;;;2.55;1.60;;;;;;;26.36;25.28;97175.94;5060228;28;20028;-28
2021/04/04 00:38:38;;;;;;;2.40;1.50;;;;;;;26.35;25.42;97177.72;5058583;28;20074;-25
2021/04/04 00:41:03;;;;;;;1.88;1.30;;;;;;;26.35;25.43;97172.44;5060730;28;20120;-23
2021/04/04 00:43:28;;;;;;;4.90;1.60;;;;;;;26.35;25.33;97166.34;5060411;28;20153;-25
2021/04/04 00:45:54;;;;;;;2.17;1.50;;;;;;;26.35;25.49;97164.56;5059895;27;20059;-26
2021/04/04 00:48:19;;;;;;;2.15;1.48;;;;;;;26.35;25.34;97168.97;5038129;28;20021;-26
2021/04/04 00:50:45;;;;;;;2.85;1.60;;;;;;;26.34;25.49;97165.50;5060909;28;20024;-27
2021/04/04 00:53:10;;;;;;;2.80;1.60;;;;;;;26.34;25.33;97168.13;5058129;28;20028;-25
2021/04/04 00:55:35;;;;;;;2.40;1.38;;;;;;;26.35;25.48;97175.06;5059737;28;20497;-25
2021/04/04 00:58:01;;;;;;;3.03;1.80;;;;;;;26.34;25.48;97181.25;5061483;28;20066;-24
2021/04/04 01:00:28;;;;;;;2.47;1.35;;;;;;;26.34;25.40;97178.63;5059945;27;20044;-23
2021/04/04 01:02:55;;;;;;;1.73;1.23;;;;;;;26.34;25.46;97164.63;5058250;28;20085;-25
2021/04/04 01:05:27;;;;;;;4.05;1.35;;;;;;;26.33;25.50;97162.94;5065381;28;20039;-27
2021/04/04 01:07:56;;;;;;;2.10;1.60;;;;;;;26.30;25.65;97158.69;5065907;28;20043;-29
2021/04/04 01:10:21;;;;;;;1.73;1.17;;;;;;;26.33;25.41;97169.06;5067527;28;20097;-25
2021/04/04 01:12:53;;;;;;;1.90;1.35;;;;;;;26.31;25.49;97163.00;5067393;28;20479;-25
2021/04/04 01:15:22;;;;;;;1.77;1.20;;;;;;;26.32;25.51;97169.13;5066972;28;20059;-26
2021/04/04 01:17:48;;;;;;;2.47;1.40;;;;;;;26.31;25.44;97163.00;5041459;28;20056;-29
2021/04/04 01:20:24;;;;;;;2.30;1.45;;;;;;;26.31;25.46;97154.31;5040271;28;20031;-27
2021/04/04 01:23:00;;;;;;;1.88;1.20;;;;;;;26.30;25.33;97161.31;5044203;28;20681;-28
2021/04/04 01:25:26;;;;;;;1.58;1.17;;;;;;;26.30;25.35;97163.94;5061277;28;20066;-27
2021/04/04 01:27:58;;;;;;;8.70;2.08;;;;;;;26.30;25.38;97158.69;5061084;28;20115;-27
2021/04/04 01:30:28;;;;;;;7.05;1.98;;;;;;;26.29;25.33;97167.50;5057093;27;20020;-25
2021/04/04 01:32:54;;;;;;;4.05;1.50;;;;;;;26.28;25.25;97165.78;5057675;28;20584;-25
2021/04/04 01:35:20;;;;;;;4.70;1.67;;;;;;;26.27;25.36;97166.72;5057876;28;20032;-26
2021/04/04 01:37:46;;;;;;;5.65;1.60;;;;;;;26.28;25.36;97160.53;5040656;28;20583;-26
2021/04/04 01:40:13;;;;;;;3.38;1.58;;;;;;;26.26;25.48;97159.78;5054077;28;20040;-25
2021/04/04 01:42:39;;;;;;;2.42;1.00;;;;;;;26.27;25.36;97158.84;5059297;28;20134;-27
2021/04/04 01:45:08;;;;;;;1.70;1.33;;;;;;;26.26;25.45;97161.53;5041272;28;20032;-25
2021/04/04 01:47:34;;;;;;;12.13;1.67;;;;;;;26.26;25.52;97162.41;5040638;28;20064;-26
2021/04/04 01:49:59;;;;;;;2.13;1.27;;;;;;;26.26;25.44;97161.53;5061204;28;20024;-24
2021/04/04 01:52:25;;;;;;;3.50;1.40;;;;;;;26.27;25.42;97163.25;5042438;28;20224;-25
2021/04/04 01:54:50;;;;;;;3.67;1.35;;;;;;;26.26;25.59;97158.91;5041602;28;20113;-24
2021/04/04 01:57:15;;;;;;;2.65;1.38;;;;;;;26.25;25.38;97152.78;5057132;28;20446;-24
2021/04/04 01:59:41;;;;;;;1.80;1.20;;;;;;;26.25;25.37;97149.31;5040797;28;20039;-24
2021/04/04 02:02:07;;;;;;;2.35;1.50;;;;;;;26.25;25.54;97149.31;5057233;28;20077;-27
2021/04/04 02:04:33;;;;;;;1.35;1.02;;;;;;;26.26;25.37;97154.50;5043492;28;20039;-25
2021/04/04 02:06:58;;;;;;;1.92;1.15;;;;;;;26.25;25.51;97152.78;5056706;28;20090;-25
2021/04/04 02:09:23;;;;;;;1.65;1.20;;;;;;;26.23;25.43;97142.34;5057855;28;20484;-25
2021/04/04 02:11:49;;;;;;;3.00;1.15;;;;;;;26.25;25.58;97144.91;5053132;28;20031;-24
2021/04/04 02:14:15;;;;;;;2.40;1.35;;;;;;;26.24;25.65;97143.22;5041874;28;20036;-26
2021/04/04 02:16:43;;;;;;;2.28;1.33;;;;;;;26.22;25.58;97135.41;5056165;28;20032;-27
2021/04/04 02:19:11;;;;;;;2.35;1.30;;;;;;;26.23;25.55;97139.72;5046432;28;20072;-28
2021/04/04 02:21:36;;;;;;;2.33;1.30;;;;;;;26.23;25.50;97136.25;5057303;28;20039;-25
2021/04/04 02:24:05;;;;;;;2.28;1.13;;;;;;;26.23;25.66;97130.97;5041812;28;20374;-26
2021/04/04 02:26:31;;;;;;;1.88;1.17;;;;;;;26.22;25.46;97135.41;5059983;28;20973;-25
2021/04/04 02:28:57;;;;;;;1.52;0.93;;;;;;;26.22;25.54;97129.28;5059787;28;20048;-26
2021/04/04 02:31:22;;;;;;;1.58;1.17;;;;;;;26.23;25.54;97133.63;5056046;28;20060;-27
2021/04/04 02:33:59;;;;;;;1.38;1.02;;;;;;;26.23;25.59;97144.13;5040593;28;20454;-27
2021/04/04 02:36:28;;;;;;;1.70;1.00;;;;;;;26.22;25.49;97137.16;5076337;27;20031;-22
2021/04/04 02:39:07;;;;;;;1.75;1.17;;;;;;;26.21;25.50;97138.94;5055837;28;20427;-25
2021/04/04 02:41:33;;;;;;;1.73;1.02;;;;;;;26.21;25.51;97132.84;5057587;28;20055;-27
2021/04/04 02:43:58;;;;;;;1.35;0.95;;;;;;;26.22;25.58;97134.53;5057090;28;20060;-23
2021/04/04 02:46:24;;;;;;;1.52;1.00;;;;;;;26.22;25.59;97142.44;5054145;28;20032;-28
2021/04/04 02:49:00;;;;;;;2.20;1.10;;;;;;;26.22;25.58;97140.66;5038757;28;20062;-27
2021/04/04 02:51:41;;;;;;;2.03;1.20;;;;;;;26.22;25.51;97139.78;5056335;28;20031;-22
2021/04/04 02:54:08;;;;;;;1.45;0.90;;;;;;;26.21;25.68;97138.94;5055109;28;20119;-25
2021/04/04 02:56:38;;;;;;;1.50;1.20;;;;;;;26.20;25.61;97136.41;5040469;28;20425;-27
2021/04/04 02:59:04;;;;;;;1.02;0.85;;;;;;;26.19;25.63;97132.06;5059367;28;20634;-23
2021/04/04 03:01:29;;;;;;;1.15;0.90;;;;;;;26.19;25.40;97135.53;5029702;28;20048;-26
2021/04/04 03:03:55;;;;;;;1.90;1.10;;;;;;;26.20;25.60;97136.41;5039554;28;20016;-25
2021/04/04 03:06:21;;;;;;;2.38;1.10;;;;;;;26.17;25.53;97131.31;5037589;28;20497;-25
2021/04/04 03:08:47;;;;;;;1.45;0.80;;;;;;;26.18;25.42;97133.84;5022319;28;20029;-26
2021/04/04 03:11:13;;;;;;;2.85;1.20;;;;;;;26.15;25.56;97123.50;5021183;28;20081;-25
2021/04/04 03:13:39;;;;;;;2.78;1.17;;;;;;;26.18;25.65;97136.47;5020604;28;20040;-27
2021/04/04 03:16:05;;;;;;;2.53;1.17;;;;;;;26.19;25.52;97132.06;5041767;28;20047;-27
2021/04/04 03:18:30;;;;;;;2.05;0.90;;;;;;;26.19;25.65;97134.69;5054607;28;20573;-25
2021/04/04 03:20:56;;;;;;;1.45;1.10;;;;;;;26.19;25.61;97139.94;5062488;28;20028;-28
2021/04/04 03:23:21;;;;;;;1.20;0.85;;;;;;;26.18;25.54;97139.09;5043678;28;20228;-26
2021/04/04 03:25:47;;;;;;;1.08;0.98;;;;;;;26.18;25.42;97133.00;5065059;28;20032;-26
2021/04/04 03:28:14;;;;;;;1.60;0.95;;;;;;;26.17;25.63;97128.69;5081718;27;20026;-27
2021/04/04 03:30:43;;;;;;;1.45;0.90;;;;;;;26.16;25.54;97130.44;5063185;28;20393;-24
2021/04/04 03:33:09;;;;;;;1.13;0.93;;;;;;;26.17;25.51;97132.16;5060598;28;20638;-29
2021/04/04 03:35:34;;;;;;;1.70;1.10;;;;;;;26.17;25.50;97131.31;5081719;28;20534;-25
2021/04/04 03:38:01;;;;;;;1.50;1.10;;;;;;;26.16;25.55;97137.50;5053423;28;20032;-23
2021/04/04 03:40:27;;;;;;;2.60;1.02;;;;;;;26.15;25.52;97130.50;5056135;28;20040;-26
2021/04/04 03:42:52;;;;;;;2.17;1.02;;;;;;;26.16;25.62;97143.56;5056464;28;20758;-26
2021/04/04 03:45:18;;;;;;;1.42;0.73;;;;;;;26.15;25.67;97143.63;5060918;27;20678;-24
2021/04/04 03:47:44;;;;;;;2.17;1.10;;;;;;;26.14;25.55;97139.31;5066042;28;20024;-27
2021/04/04 03:50:10;;;;;;;1.30;0.80;;;;;;;26.13;25.63;97138.50;5060263;28;20017;-29
2021/04/04 03:52:35;;;;;;;3.30;1.20;;;;;;;26.14;25.72;97148.06;5044481;28;20020;-26
2021/04/04 03:55:01;;;;;;;1.55;1.15;;;;;;;26.13;25.66;97141.13;5047436;28;20028;-27
2021/04/04 03:57:26;;;;;;;1.35;0.80;;;;;;;26.14;25.67;97141.94;5067736;28;20032;-27
2021/04/04 03:59:52;;;;;;;2.17;1.17;;;;;;;26.14;25.70;97141.94;5049392;28;20047;-26
2021/04/04 04:02:20;;;;;;;2.20;1.15;;;;;;;26.13;25.65;97130.63;5059911;28;20048;-26
2021/04/04 04:04:45;;;;;;;3.10;0.80;;;;;;;26.13;25.53;97135.88;5052479;28;20035;-26
2021/04/04 04:07:11;;;;;;;2.15;1.10;;;;;;;26.13;25.85;97142.88;5067047;28;20048;-24
2021/04/04 04:09:36;;;;;;;1.48;0.80;;;;;;;26.12;25.58;97138.56;5061094;28;20032;-27
2021/04/04 04:12:02;;;;;;;1.35;0.85;;;;;;;26.12;25.73;97138.56;5067025;28;20028;-25
2021/04/04 04:14:27;;;;;;;1.13;0.80;;;;;;;26.14;25.61;97134.06;5046802;28;20020;-27
2021/04/04 04:16:52;;;;;;;1.40;0.88;;;;;;;26.13;25.49;97143.75;5047492;28;20040;-25
2021/04/04 04:19:18;;;;;;;3.40;0.85;;;;;;;26.12;25.73;97139.38;5063895;28;20027;-25
2021/04/04 04:21:43;;;;;;;2.78;0.73;;;;;;;26.12;25.61;97135.94;5048056;28;21206;-27
2021/04/04 04:24:13;;;;;;;2.08;0.95;;;;;;;26.13;25.65;97135.00;5067563;28;20044;-27
2021/04/04 04:26:42;;;;;;;1.25;0.77;;;;;;;26.12;25.58;97130.69;5051067;28;20028;-26
2021/04/04 04:29:08;;;;;;;1.88;1.00;;;;;;;26.11;25.57;97132.44;5063422;28;20061;-24
2021/04/04 04:31:35;;;;;;;1.38;0.90;;;;;;;26.10;25.73;97126.34;5058824;28;20079;-26
2021/04/04 04:34:01;;;;;;;2.58;1.00;;;;;;;26.10;25.73;97126.34;5057955;28;20024;-21
2021/04/04 04:36:27;;;;;;;0.82;0.75;;;;;;;26.09;25.64;97119.38;5059831;28;20032;-26
2021/04/04 04:38:52;;;;;;;2.00;1.00;;;;;;;26.08;25.80;97117.69;5039891;28;20036;-25
2021/04/04 04:41:18;;;;;;;1.15;0.80;;;;;;;26.09;25.64;97119.38;5054001;28;20108;-28
2021/04/04 04:43:46;;;;;;;1.65;1.00;;;;;;;26.09;25.62;97116.75;5054026;28;20032;-26
2021/04/04 04:46:13;;;;;;;1.52;0.77;;;;;;;26.09;25.75;97123.81;5053982;28;20545;-27
2021/04/04 04:48:38;;;;;;;1.30;0.80;;;;;;;26.09;25.69;97124.63;5054822;28;20039;-26
2021/04/04 04:51:04;;;;;;;1.05;0.70;;;;;;;26.09;25.75;97124.63;5054012;28;20016;-26
2021/04/04 04:53:29;;;;;;;1.23;0.88;;;;;;;26.09;25.71;97134.31;5043746;28;20028;-27
2021/04/04 04:55:55;;;;;;;1.38;0.90;;;;;;;26.08;25.78;97136.06;5059390;28;21051;-24
2021/04/04 04:58:20;;;;;;;1.00;0.70;;;;;;;26.07;25.66;97123.88;5060124;28;20043;-28
2021/04/04 05:00:46;;;;;;;1.38;0.70;;;;;;;26.07;25.70;97129.13;5058326;28;20043;-25
2021/04/04 05:03:11;;;;;;;1.23;0.80;;;;;;;26.07;25.65;97130.88;5057977;28;20058;-25
2021/04/04 05:05:36;;;;;;;0.55;0.55;;;;;;;26.07;25.75;97121.25;5057511;28;20097;-23
2021/04/04 05:08:02;;;;;;;3.17;0.80;;;;;;;26.06;25.82;97129.19;5044387;28;20374;-22
2021/04/04 05:10:27;;;;;;;1.95;0.75;;;;;;;26.06;25.63;97127.44;5043471;28;20036;-29
2021/04/04 05:12:55;;;;;;;1.60;0.90;;;;;;;26.04;25.65;97131.91;5044257;28;20030;-24
2021/04/04 05:15:23;;;;;;;1.08;0.75;;;;;;;26.05;25.73;97136.22;5057599;28;20039;-28
2021/04/04 05:17:49;;;;;;;3.58;0.82;;;;;;;26.05;25.57;97138.84;5057952;28;20032;-23
2021/04/04 05:20:14;;;;;;;1.30;0.70;;;;;;;26.06;25.59;97139.72;5056704;28;20063;-26
2021/04/04 05:22:40;;;;;;;2.85;0.65;;;;;;;26.05;25.65;97133.59;5058038;28;20580;-26
2021/04/04 05:25:06;;;;;;;1.50;0.80;;;;;;;26.05;25.64;97138.00;5058216;28;20323;-25
2021/04/04 05:27:32;;;;;;;1.02;0.70;;;;;;;26.04;25.63;97134.53;5054613;28;20105;-25
2021/04/04 05:29:59;;;;;;;1.02;0.70;;;;;;;26.04;25.83;97133.66;5057527;28;20031;-28
2021/04/04 05:32:24;;;;;;;2.30;1.08;;;;;;;26.04;25.65;97137.16;5066459;28;20062;-25
2021/04/04 05:34:49;;;;;;;1.23;0.77;;;;;;;26.04;25.69;97131.91;5068811;28;20493;-24
2021/04/04 05:37:15;;;;;;;4.97;0.80;;;;;;;26.04;25.70;97137.16;5070428;28;20036;-29
2021/04/04 05:39:40;;;;;;;1.65;0.80;;;;;;;26.03;25.75;97135.47;5070640;28;20269;-24
2021/04/04 05:42:09;;;;;;;0.65;0.60;;;;;;;26.03;25.68;97130.19;5067430;28;20408;-27
2021/04/04 05:45:03;;;;;;;1.23;0.50;;;;;;;25.98;25.67;97118.22;5060512;28;20039;-25
2021/04/04 05:47:40;;;;;;;1.17;0.80;;;;;;;26.03;25.85;97124.09;5057506;28;20032;-26
2021/04/04 05:50:27;;;;;;;1.00;0.63;;;;;;;26.01;25.73;97129.41;5057816;28;20111;-26
2021/04/04 05:53:11;;;;;;;1.42;0.80;;;;;;;26.01;25.63;97132.03;5055735;28;20515;-27
2021/04/04 05:55:52;;;;;;;1.33;0.80;;;;;;;26.00;25.86;97125.09;5058477;28;20078;-28
2021/04/04 05:58:28;;;;;;;1.15;0.73;;;;;;;26.00;25.74;97125.09;5061032;28;20031;-24
2021/04/04 06:00:56;;;;;;;3.15;0.80;;;;;;;25.98;25.79;97116.44;5056097;28;20042;-24
2021/04/04 06:03:41;;;;;;;1.05;0.57;;;;;;;26.00;25.73;97130.34;5056874;28;20059;-25
2021/04/04 06:06:06;;;;;;;1.42;0.70;;;;;;;26.00;25.67;97129.50;5056591;28;20081;-27
2021/04/04 06:08:50;;;;;;;2.33;0.63;;;;;;;25.99;25.63;97128.66;5059562;28;20031;-28
2021/04/04 06:11:22;;;;;;;1.65;0.80;;;;;;;25.99;25.84;97128.66;5060571;28;20036;-24
2021/04/04 06:13:54;;;;;;;0.68;0.40;;;;;;;25.98;25.81;97131.34;5059160;28;20036;-27
2021/04/04 06:16:27;;;;;;;1.30;0.70;;;;;;;25.97;25.77;97127.84;5053132;28;20145;-24
2021/04/04 06:19:29;;;;;;;0.50;0.50;;;;;;;25.97;25.64;97125.22;5058590;28;20540;-23
2021/04/04 06:22:14;;;;;;;1.80;0.57;;;;;;;25.97;25.73;97122.59;5063601;28;20016;-25
2021/04/04 06:25:07;;;;;;;1.42;0.95;;;;;;;25.98;25.88;97126.09;5056245;28;20245;-25
2021/04/04 06:27:41;;;;;;;1.27;0.50;;;;;;;25.98;25.71;97131.34;5039611;28;20036;-27
2021/04/04 06:30:47;;;;;;;1.70;1.00;;;;;;;25.98;25.81;97131.34;5058038;27;20079;-28
2021/04/04 06:33:22;;;;;;;1.05;0.60;;;;;;;25.96;25.60;97128.78;5059346;28;20025;-26
2021/04/04 06:36:27;;;;;;;2.50;0.90;;;;;;;25.95;25.79;97127.97;5057630;28;20047;-26
2021/04/04 06:39:03;;;;;;;4.65;1.00;;;;;;;25.97;25.70;97127.84;5055988;28;20032;-28
2021/04/04 06:41:47;;;;;;;3.03;0.80;;;;;;;25.96;25.74;97124.41;5058795;28;20040;-27
2021/04/04 06:44:13;;;;;;;1.58;0.80;;;;;;;25.96;25.81;97120.91;5057332;28;20028;-25
2021/04/04 06:46:58;;;;;;;8.65;1.05;;;;;;;25.95;25.83;97119.22;5058672;27;20482;-26
2021/04/04 06:50:08;;;;;;;13.05;2.13;;;;;;;25.96;25.64;97123.53;5061992;28;20050;-23
2021/04/04 06:52:57;;;;;;;6.65;1.90;;;;;;;25.95;25.82;97127.09;5057629;28;20043;-23
2021/04/04 06:55:48;;;;;;;8.23;2.45;;;;;;;25.93;25.63;97121.09;5048245;28;20172;-23
2021/04/04 06:58:37;;;;;;;2.47;0.98;;;;;;;25.94;25.89;97126.22;5045191;28;20043;-26
2021/04/04 07:01:07;;;;;;;5.57;2.10;;;;;;;25.94;25.33;97130.66;5058846;27;20113;-23
2021/04/04 07:03:48;;;;;;;7.10;2.20;;;;;;;25.94;24.82;97126.22;5064083;28;20594;-25
2021/04/04 07:06:25;;;;;;;5.45;2.20;;;;;;;25.93;24.59;97128.97;5061106;28;20069;-29
2021/04/04 07:09:33;;;;;;;4.20;2.10;;;;;;;25.90;24.12;97136.97;5061931;28;20657;-26
2021/04/04 07:12:11;;;;;;;8.18;2.00;;;;;;;25.87;24.11;97131.88;5056115;28;20048;-27
2021/04/04 07:14:54;;;;;;;5.70;2.40;;;;;;;25.85;24.03;97136.34;5052412;28;20036;-27
2021/04/04 07:17:37;;;;;;;6.57;2.30;;;;;;;25.83;23.96;97132.00;5059375;28;20900;-25
2021/04/04 07:20:41;;;;;;;8.38;2.10;;;;;;;25.81;23.90;97133.88;5065250;28;20067;-25
2021/04/04 07:23:33;;;;;;;6.00;2.20;;;;;;;25.81;23.86;97131.25;5050362;28;20563;-22
2021/04/04 07:26:10;;;;;;;;;;;;;;;25.80;23.79;97133.94;5061197;28;20028;-27
2021/04/04 07:28:51;;;;;;;5.05;2.38;;;;;;;25.80;23.65;97133.94;5063291;28;20564;-25
2021/04/04 07:31:17;;;;;;;3.97;2.20;;;;;;;25.79;23.58;97126.97;5062950;28;20027;-27
2021/04/04 07:33:48;;;;;;;7.25;2.42;;;;;;;25.76;23.48;97133.25;5058482;28;20097;-26
2021/04/04 07:36:17;;;;;;;6.72;2.45;;;;;;;25.76;23.42;97135.88;5058648;28;20034;-27
2021/04/04 07:39:11;;;;;;;4.72;2.60;;;;;;;25.76;23.38;97138.50;5046277;28;20032;-28
2021/04/04 07:42:14;;;;;;;5.90;2.45;;;;;;;25.75;23.42;97131.53;5064915;28;20896;-24
2021/04/04 07:44:53;;;;;;;8.80;2.67;;;;;;;25.75;23.39;97136.78;5061633;28;20736;-23
2021/04/04 07:47:27;;;;;;;7.82;2.63;;;;;;;25.74;23.38;97134.22;5047613;28;20177;-26
2021/04/04 07:49:52;;;;;;;6.20;2.55;;;;;;;25.75;23.35;97138.56;5061527;28;20017;-26
2021/04/04 07:52:33;;;;;;;6.43;2.60;;;;;;;25.73;23.10;97132.53;5066886;28;20552;-27
2021/04/04 07:55:12;;;;;;;7.90;2.90;;;;;;;25.72;23.12;97131.69;5065626;28;20111;-22
2021/04/04 07:58:11;;;;;;;8.13;2.90;;;;;;;25.71;23.15;97129.97;5066407;28;20047;-21
2021/04/04 08:00:39;;;;;;;9.48;2.85;;;;;;;25.72;23.15;97128.19;5063466;28;20097;-29
2021/04/04 08:03:13;;;;;;;8.02;2.53;;;;;;;25.72;22.96;97131.69;5061511;28;20036;-26
2021/04/04 08:05:41;;;;;;;5.07;2.50;;;;;;;25.73;22.88;97128.13;5044406;28;20490;-26
2021/04/04 08:08:18;;;;;;;7.22;2.97;;;;;;;25.74;22.96;97131.59;5063087;28;20392;-26
2021/04/04 08:10:58;;;;;;;4.82;2.60;;;;;;;25.74;22.86;97124.56;5066266;28;20067;-25
2021/04/04 08:13:44;;;;;;;5.55;2.60;;;;;;;25.74;22.88;97132.44;5066132;28;20032;-26
2021/04/04 08:16:42;;;;;;;6.57;2.80;;;;;;;25.75;22.90;97128.06;5063412;28;20044;-25
2021/04/04 08:19:08;;;;;;;5.15;2.33;;;;;;;25.77;22.87;97134.94;5065686;28;20042;-22
2021/04/04 08:21:51;;;;;;;4.60;2.42;;;;;;;25.79;23.04;97130.47;5057333;28;20431;-22
2021/04/04 08:24:38;;;;;;;8.10;2.88;;;;;;;25.79;22.82;97138.34;5047526;28;20139;-27
2021/04/04 08:27:10;;;;;;;9.13;3.00;;;;;;;25.80;22.85;97129.53;5042692;28;20048;-23
2021/04/04 08:29:40;;;;;;;4.70;2.40;;;;;;;25.81;22.76;97125.97;5060247;28;20020;-25
2021/04/04 08:32:08;;;;;;;5.88;2.50;;;;;;;25.81;22.73;97127.75;5043210;28;20036;-25
2021/04/04 08:34:40;;;;;;;7.50;2.50;;;;;;;25.82;22.91;97122.44;5067475;28;20051;-25
2021/04/04 08:37:27;;;;;;;5.68;2.40;;;;;;;25.84;22.76;97127.59;5063940;28;20024;-26
2021/04/04 08:39:57;;;;;;;13.80;3.30;;;;;;;25.83;22.14;97124.13;5069300;28;20528;-26
2021/04/04 08:42:23;;;;;;;8.50;3.50;;;;;;;25.78;21.73;97122.66;5061900;28;20062;-24
2021/04/04 08:45:15;;;;;;;6.47;3.63;;;;;;;25.65;19.40;97125.88;5062085;28;20740;-27
2021/04/04 08:47:42;;;;;;;8.18;3.97;;;;;;;25.51;19.79;97123.84;5064704;28;20127;-26
2021/04/04 08:50:13;;;;;;;8.43;3.75;;;;;;;25.35;19.45;97128.97;5062672;28;20032;-26
2021/04/04 08:52:44;;;;;;;6.90;3.13;;;;;;;25.21;20.02;97121.75;5060712;28;20035;-27
2021/04/04 08:55:11;;;;;;;;;;;;;;;25.15;20.19;97127.25;5060821;28;21122;-28
2021/04/04 08:57:38;;;;;;;8.50;2.60;;;;;;;25.12;20.51;97116.88;5059605;28;19955;-26
2021/04/04 09:00:06;;;;;;;9.02;2.65;;;;;;;25.11;20.66;97117.81;5058712;28;20040;-24
2021/04/04 09:02:32;;;;;;;8.70;2.65;;;;;;;25.14;20.77;97122.94;5059247;28;20040;-24
2021/04/04 09:05:03;;;;;;;5.32;2.40;;;;;;;25.16;21.02;97118.44;5056686;28;20694;-25
2021/04/04 09:07:29;;;;;;;4.85;2.22;;;;;;;25.20;21.25;97119.19;5059469;28;20032;-25
2021/04/04 09:09:54;;;;;;;8.90;2.58;;;;;;;25.24;21.39;97118.97;5053129;28;20573;-24
2021/04/04 09:12:20;;;;;;;5.70;2.10;;;;;;;25.26;21.31;97119.75;5042283;28;20028;-26
2021/04/04 09:14:45;;;;;;;4.50;1.95;;;;;;;25.30;21.47;97121.31;5035253;28;20108;-24
2021/04/04 09:17:17;;;;;;;4.78;1.95;;;;;;;25.37;21.48;97116.66;5045562;28;20051;-28
2021/04/04 09:19:45;;;;;;;6.20;2.10;;;;;;;25.42;21.83;97119.03;5062766;28;20523;-23
2021/04/04 09:22:19;;;;;;;5.03;2.03;;;;;;;25.46;21.93;97110.09;5061918;28;20040;-27
2021/04/04 09:25:01;;;;;;;5.93;1.98;;;;;;;25.52;21.97;97114.22;5063543;28;20024;-26
2021/04/04 09:27:27;;;;;;;;;;;;;;;25.57;22.12;97107.00;5066293;28;22249;-25
2021/04/04 09:29:55;;;;;;;5.30;1.95;;;;;;;25.61;22.15;97099.81;5064731;28;19916;-25
2021/04/04 09:32:38;;;;;;;5.88;2.03;;;;;;;25.64;22.38;97097.94;5063235;28;20638;-23
2021/04/04 09:35:05;;;;;;;7.68;2.03;;;;;;;25.68;22.34;97106.50;5065120;28;20112;-26
2021/04/04 09:37:30;;;;;;;9.15;2.33;;;;;;;25.70;22.38;97108.13;5070868;28;20396;-26
2021/04/04 09:39:56;;;;;;;12.95;2.42;;;;;;;25.73;22.86;97101.88;5068543;28;20039;-25
2021/04/04 09:42:21;;;;;;;10.52;3.05;;;;;;;25.74;22.75;97100.94;5067551;28;20055;-25
2021/04/04 09:44:47;;;;;;;9.98;2.80;;;;;;;25.78;22.67;97109.53;5067977;28;20197;-26
2021/04/04 09:47:12;;;;;;;14.23;2.78;;;;;;;25.81;22.79;97112.00;5067307;28;20040;-28
2021/04/04 09:49:50;;;;;;;11.85;3.15;;;;;;;25.82;22.99;97103.22;5051643;28;20439;-26
2021/04/04 09:52:28;;;;;;;13.90;3.30;;;;;;;25.85;23.09;97107.47;5065687;28;20089;-27
2021/04/04 09:55:04;;;;;;;16.05;3.05;;;;;;;25.86;23.29;97106.53;5065727;28;20047;-25
2021/04/04 09:57:30;;;;;;;10.20;3.20;;;;;;;25.89;23.13;97101.16;5069515;28;20036;-27
2021/04/04 09:59:58;;;;;;;9.20;2.97;;;;;;;25.89;23.31;97101.97;5066168;28;20082;-25
2021/04/04 10:02:33;;;;;;;8.00;2.85;;;;;;;25.91;23.36;97091.41;5069078;28;20101;-24
2021/04/04 10:04:59;;;;;;;8.27;2.95;;;;;;;25.92;23.34;97091.34;5071149;28;20024;-24
2021/04/04 10:07:31;;;;;;;8.90;2.78;;;;;;;25.93;23.48;97092.19;5075306;28;20032;-24
2021/04/04 10:09:56;;;;;;;;;;;;;;;25.95;23.50;97090.34;5063392;28;20359;-22
2021/04/04 10:12:22;;;;;;;10.70;2.70;;;;;;;25.97;23.57;97091.09;5069167;28;20747;-27
2021/04/04 10:15:07;;;;;;;9.68;2.63;;;;;;;25.99;23.81;97091.88;5065214;28;20557;-25
2021/04/04 10:17:36;;;;;;;7.97;2.60;;;;;;;26.01;23.69;97092.66;5065210;28;20048;-24
2021/04/04 10:20:04;;;;;;;6.32;2.50;;;;;;;26.01;23.96;97090.03;5070719;28;20690;-26
2021/04/04 10:22:49;;;;;;;6.72;2.70;;;;;;;26.02;23.93;97086.50;5064526;28;20044;-25
2021/04/04 10:25:15;;;;;;;9.35;2.75;;;;;;;26.03;24.01;97090.81;5051521;28;20524;-27
2021/04/04 10:27:40;;;;;;;6.93;2.88;;;;;;;26.04;23.88;97091.63;5070672;28;20594;-27
2021/04/04 10:30:12;;;;;;;6.53;2.63;;;;;;;26.04;23.99;97087.25;5071537;28;20020;-27
2021/04/04 10:32:39;;;;;;;6.80;2.60;;;;;;;26.05;24.19;97083.69;5068951;28;20059;-27
2021/04/04 10:35:08;;;;;;;12.15;2.72;;;;;;;26.07;24.16;97083.63;5070106;28;20043;-23
2021/04/04 10:37:34;;;;;;;11.38;2.88;;;;;;;26.08;24.24;97075.66;5069923;28;20170;-25
2021/04/04 10:40:00;;;;;;;8.82;2.00;;;;;;;26.09;24.20;97071.28;5067094;28;20028;-25
2021/04/04 10:42:26;;;;;;;8.13;2.53;;;;;;;26.09;24.22;97066.84;5068602;28;20693;-27
2021/04/04 10:45:08;;;;;;;3.88;2.10;;;;;;;26.10;24.38;97068.56;5066572;28;20024;-28
2021/04/04 10:47:33;;;;;;;;;;;;;;;26.13;24.46;97066.72;5066849;27;20096;-28
2021/04/04 10:49:59;;;;;;;6.03;2.60;;;;;;;26.13;24.69;97061.47;5070240;28;20369;-26
2021/04/04 10:52:24;;;;;;;5.68;2.33;;;;;;;26.12;24.39;97059.78;5064090;28;20032;-26
2021/04/04 10:54:49;;;;;;;5.90;2.20;;;;;;;26.13;24.44;97058.84;5070089;28;20036;-26
2021/04/04 10:57:15;;;;;;;7.88;2.28;;;;;;;26.14;24.46;97050.03;5068939;28;20028;-25
2021/04/04 10:59:40;;;;;;;6.45;2.30;;;;;;;26.15;24.42;97056.97;5051597;28;20286;-26
2021/04/04 11:02:06;;;;;;;8.73;2.63;;;;;;;26.15;24.61;97049.09;5061901;28;20036;-24
2021/04/04 11:04:32;;;;;;;5.68;2.28;;;;;;;26.17;24.65;97049.88;5071733;28;20027;-22
2021/04/04 11:06:58;;;;;;;5.53;2.08;;;;;;;26.17;24.70;97049.88;5070414;28;20033;-28
2021/04/04 11:09:24;;;;;;;7.15;2.30;;;;;;;26.17;24.64;97045.47;5070956;28;20020;-23
2021/04/04 11:11:49;;;;;;;5.32;2.20;;;;;;;26.18;24.70;97048.94;5069613;28;20024;-26
2021/04/04 11:14:15;;;;;;;4.80;1.90;;;;;;;26.19;24.88;97037.50;5067696;28;20024;-25
2021/04/04 11:16:40;;;;;;;4.28;1.77;;;;;;;26.20;24.75;97042.69;5055666;28;20051;-27
2021/04/04 11:19:06;;;;;;;4.47;2.05;;;;;;;26.20;24.85;97032.16;5057449;28;20054;-25
2021/04/04 11:21:34;;;;;;;4.75;2.05;;;;;;;26.22;24.92;97032.09;5056536;28;20028;-28
2021/04/04 11:24:00;;;;;;;6.35;2.10;;;;;;;26.22;24.65;97024.22;5057859;28;20508;-25
2021/04/04 11:26:37;;;;;;;4.53;2.20;;;;;;;26.23;24.96;97031.16;5049297;28;20039;-27
2021/04/04 11:29:26;;;;;;;4.63;2.05;;;;;;;26.23;25.00;97026.78;5043148;28;21557;-25
2021/04/04 11:31:56;;;;;;;4.43;1.80;;;;;;;26.25;24.96;97017.94;5065348;28;20577;-21
2021/04/04 11:34:29;;;;;;;3.75;2.00;;;;;;;26.25;24.87;97018.81;5068309;28;20107;-25
2021/04/04 11:36:55;;;;;;;5.25;1.92;;;;;;;26.26;24.91;97019.69;5068321;28;20025;-26
2021/04/04 11:39:22;;;;;;;5.28;1.90;;;;;;;26.26;25.13;97017.91;5068788;28;20042;-25
2021/04/04 11:41:55;;;;;;;2.60;1.63;;;;;;;26.28;25.08;97017.84;5067194;28;20040;-27
2021/04/04 11:44:30;;;;;;;3.80;2.03;;;;;;;26.28;25.03;97018.66;5067452;28;20528;-26
2021/04/04 11:47:03;;;;;;;3.80;1.70;;;;;;;26.28;25.08;97018.66;5070048;28;20040;-28
2021/04/04 11:49:50;;;;;;;4.38;1.83;;;;;;;26.29;25.22;97016.91;5059772;28;20041;-23
2021/04/04 11:52:16;;;;;;;4.47;1.63;;;;;;;26.29;25.31;97011.66;5065706;28;20028;-26